CMB849 Details

Departure: Diego Garcia (FJDG)
Arrival: Paya Lebar Airport (WSAP) at N/A
Route: NKW R212 PIBED N633 PKU R469 ASUNA
Notes: USTRANSCOM CONTRACT FLIGHT


Current Weather Information
FJDG 171655Z 09006KT 9999 FEW019 SCT100 BKN250 28/26 A2986 RMK SLP108 T02810262
WSAP 171700Z 14004KT 9999 FEW018 BKN300 28/24 Q1010